createdAt,value
2018-01-30T00:01:06.194Z,92.00
2018-01-30T00:02:43.494Z,92.50
2018-01-30T00:04:22.651Z,92.60
2018-01-30T00:06:00.218Z,92.60
2018-01-30T00:07:37.543Z,92.70
2018-01-30T00:09:14.362Z,92.60
2018-01-30T06:31:07.516Z,95.40
2018-01-30T06:32:43.959Z,95.90
2018-01-30T06:34:21.068Z,95.20
2018-01-30T06:35:57.853Z,95.20
2018-01-30T06:37:35.017Z,95.30
2018-01-30T06:39:11.409Z,95.50
2018-01-30T06:40:47.967Z,94.90
2018-01-30T06:42:25.579Z,95.00
2018-01-30T06:44:02.028Z,94.80
2018-01-30T06:45:38.502Z,95.10
2018-01-30T06:47:15.725Z,93.40
2018-01-30T06:48:53.004Z,93.40
2018-01-30T06:50:29.602Z,92.40
2018-01-30T06:52:06.095Z,91.70
2018-01-30T06:53:42.501Z,91.30
2018-01-30T06:55:18.942Z,92.00
2018-01-30T06:56:56.953Z,93.10
2018-01-30T06:58:33.528Z,94.60
2018-01-30T07:00:10.147Z,95.50
2018-01-30T07:01:46.827Z,95.70
2018-01-30T07:03:23.330Z,96.30
2018-01-30T07:04:59.643Z,96.70
2018-01-30T07:06:36.094Z,97.20
2018-01-30T07:08:12.917Z,98.10
2018-01-30T07:09:50.103Z,98.40
2018-01-30T07:11:27.478Z,98.30
2018-01-30T07:13:04.267Z,98.20
2018-01-30T07:14:41.790Z,98.00
2018-01-30T07:16:18.259Z,98.00
2018-01-30T07:17:55.412Z,99.10
2018-01-30T07:19:31.856Z,99.00
2018-01-30T07:21:08.527Z,99.40
2018-01-30T07:22:44.913Z,99.90
2018-01-30T07:24:21.360Z,99.90
2018-01-30T07:25:58.974Z,99.90
2018-01-30T07:27:36.641Z,99.90
2018-01-30T07:29:13.408Z,99.90
2018-01-30T07:30:50.807Z,99.90
2018-01-30T07:32:27.254Z,99.90
2018-01-30T07:34:04.122Z,99.90
2018-01-30T07:35:40.602Z,99.90
2018-01-30T07:37:17.133Z,99.30
2018-01-30T07:38:53.525Z,99.50
2018-01-30T07:40:30.004Z,99.10
2018-01-30T07:42:06.437Z,99.00
2018-01-30T07:43:43.054Z,98.70
2018-01-30T07:45:19.554Z,98.70
2018-01-30T07:46:56.239Z,98.90
2018-01-30T07:48:32.770Z,99.50
2018-01-30T07:50:09.298Z,99.80
2018-01-30T07:51:46.186Z,99.90
2018-01-30T07:53:23.012Z,99.90
2018-01-30T07:55:00.161Z,99.90
2018-01-30T07:56:37.049Z,99.90
2018-01-30T07:58:13.461Z,99.90
2018-01-30T07:59:51.291Z,99.90
2018-01-30T08:01:27.738Z,99.90
2018-01-30T08:03:04.876Z,99.90
2018-01-30T08:04:42.053Z,99.90
2018-01-30T08:06:18.939Z,99.90
2018-01-30T08:07:58.931Z,99.90
2018-01-30T08:09:35.424Z,99.90
2018-01-30T08:11:12.174Z,99.80
2018-01-30T08:12:49.962Z,99.40
2018-01-30T08:14:26.309Z,99.00
2018-01-30T08:16:03.706Z,98.80
2018-01-30T08:17:40.214Z,99.40
2018-01-30T08:19:16.951Z,98.10
2018-01-30T08:20:53.520Z,98.00
2018-01-30T08:22:30.805Z,98.60
2018-01-30T08:24:07.494Z,98.70
2018-01-30T08:25:44.767Z,99.40
2018-01-30T08:27:21.264Z,99.40
2018-01-30T08:28:58.397Z,97.80
2018-01-30T08:30:34.744Z,97.80
2018-01-30T08:32:11.452Z,97.90
2018-01-30T08:33:47.949Z,96.10
2018-01-30T08:35:25.849Z,95.50
2018-01-30T08:37:03.051Z,97.00
2018-01-30T08:38:40.843Z,97.00
2018-01-30T08:40:17.458Z,97.30
2018-01-30T08:41:53.845Z,97.60
2018-01-30T08:43:30.286Z,97.00
2018-01-30T08:45:08.077Z,97.00
2018-01-30T08:46:45.220Z,96.50
2018-01-30T08:48:21.683Z,95.00
2018-01-30T08:49:58.080Z,95.00
2018-01-30T08:51:34.730Z,96.30
2018-01-30T08:53:11.194Z,95.50
2018-01-30T08:54:47.494Z,94.70
2018-01-30T08:56:23.967Z,94.70
2018-01-30T08:58:01.607Z,96.00
2018-01-30T08:59:38.356Z,96.00
2018-01-30T09:01:14.823Z,96.70
2018-01-30T09:02:51.110Z,96.70
2018-01-30T09:04:27.840Z,96.30
2018-01-30T09:06:05.191Z,94.60
2018-01-30T09:07:41.643Z,94.50
2018-01-30T09:09:18.092Z,93.70
2018-01-30T09:10:54.912Z,93.70
2018-01-30T09:12:31.816Z,93.40
2018-01-30T09:14:08.289Z,92.80
2018-01-30T09:15:45.341Z,92.70
2018-01-30T09:17:22.843Z,92.80
2018-01-30T09:18:59.311Z,92.70
2018-01-30T09:20:35.857Z,92.20
2018-01-30T09:22:12.335Z,92.00
2018-01-30T09:23:48.963Z,92.30
2018-01-30T09:25:26.190Z,94.30
2018-01-30T09:27:02.603Z,94.30
2018-01-30T09:28:39.845Z,93.40
2018-01-30T09:30:17.865Z,92.40
2018-01-30T09:31:54.250Z,92.10
2018-01-30T09:33:31.510Z,92.70
2018-01-30T09:35:07.906Z,92.70
2018-01-30T09:36:44.924Z,93.90
2018-01-30T09:38:21.581Z,95.30
2018-01-30T09:39:58.105Z,95.10
2018-01-30T09:41:34.555Z,94.30
2018-01-30T09:43:11.374Z,94.80
2018-01-30T09:44:47.892Z,94.00
2018-01-30T09:46:24.347Z,94.10
2018-01-30T09:48:00.802Z,93.80
2018-01-30T09:49:37.603Z,92.80
2018-01-30T09:51:13.982Z,92.50
2018-01-30T09:52:51.291Z,93.50
2018-01-30T09:54:27.988Z,93.40
2018-01-30T09:56:04.874Z,93.10
2018-01-30T09:57:41.719Z,94.40
2018-01-30T09:59:18.892Z,93.30
2018-01-30T10:00:55.491Z,93.30
2018-01-30T10:02:32.356Z,94.50
2018-01-30T10:04:09.527Z,93.90
2018-01-30T10:05:46.320Z,93.90
2018-01-30T10:07:22.735Z,93.00
2018-01-30T10:08:59.380Z,92.40
2018-01-30T10:10:35.723Z,91.60
2018-01-30T10:12:12.349Z,92.20
2018-01-30T10:13:48.804Z,92.10
2018-01-30T10:15:25.783Z,91.90
2018-01-30T10:17:03.108Z,90.90
2018-01-30T10:18:39.619Z,90.90
2018-01-30T10:20:16.561Z,92.40
2018-01-30T10:21:53.007Z,93.20
2018-01-30T10:23:29.365Z,92.20
2018-01-30T10:25:05.932Z,92.60
2018-01-30T10:26:42.382Z,91.80
2018-01-30T10:28:19.451Z,91.30
2018-01-30T10:29:55.812Z,91.80
2018-01-30T10:31:33.545Z,91.40
2018-01-30T10:33:09.940Z,91.40
2018-01-30T10:34:47.572Z,92.30
2018-01-30T10:36:24.012Z,92.30
2018-01-30T10:38:00.520Z,92.30
2018-01-30T10:39:37.871Z,89.50
2018-01-30T10:41:15.036Z,89.50
2018-01-30T10:42:51.642Z,90.60
2018-01-30T10:44:28.146Z,91.80
2018-01-30T10:46:04.550Z,91.50
2018-01-30T10:47:42.402Z,91.50
2018-01-30T10:49:19.784Z,90.80
2018-01-30T10:50:57.206Z,90.00
2018-01-30T10:52:37.370Z,89.90
2018-01-30T10:54:14.497Z,89.00
2018-01-30T10:55:51.705Z,87.30
2018-01-30T10:57:29.105Z,87.40
2018-01-30T10:59:05.786Z,87.40
2018-01-30T11:00:42.999Z,87.80
2018-01-30T11:02:19.343Z,85.70
2018-01-30T11:03:56.639Z,86.90
2018-01-30T11:07:29.497Z,85.70
2018-01-30T11:09:06.861Z,85.00
2018-01-30T11:10:44.424Z,84.90
2018-01-30T11:12:22.161Z,88.20
2018-01-30T11:13:58.598Z,88.10
2018-01-30T11:15:36.770Z,90.00
2018-01-30T11:17:14.336Z,90.00
2018-01-30T11:18:51.172Z,88.10
2018-01-30T11:20:28.447Z,86.80
2018-01-30T11:22:04.901Z,86.60
2018-01-30T11:23:41.347Z,87.80
2018-01-30T11:25:18.370Z,87.30
2018-01-30T11:26:54.834Z,88.50
2018-01-30T11:28:31.352Z,87.40
2018-01-30T11:30:09.401Z,86.90
2018-01-30T11:31:47.326Z,86.70
2018-01-30T11:33:23.923Z,86.10
2018-01-30T11:35:00.536Z,86.30
2018-01-30T11:36:37.161Z,86.90
2018-01-30T11:38:14.985Z,89.00
2018-01-30T11:39:52.271Z,89.00
2018-01-30T11:41:29.927Z,90.60
2018-01-30T11:43:07.117Z,90.20
2018-01-30T11:44:44.068Z,88.40
2018-01-30T11:46:20.477Z,86.50
2018-01-30T11:47:57.184Z,85.20
2018-01-30T11:49:35.505Z,85.30
2018-01-30T11:51:12.029Z,85.70
2018-01-30T11:52:49.549Z,87.40
2018-01-30T11:57:39.132Z,84.40
2018-01-30T11:59:15.811Z,84.20
2018-01-30T12:00:53.139Z,85.10
2018-01-30T12:02:29.610Z,86.20
2018-01-30T12:04:08.324Z,83.60
2018-01-30T12:05:44.985Z,83.60
2018-01-30T12:07:22.700Z,84.60
2018-01-30T12:08:59.232Z,84.80
2018-01-30T12:10:35.961Z,84.10
2018-01-30T12:12:12.559Z,86.10
2018-01-30T12:13:49.147Z,87.30
2018-01-30T12:15:26.015Z,85.70
2018-01-30T12:17:02.675Z,88.90
2018-01-30T12:18:40.367Z,86.20
2018-01-30T12:20:19.935Z,85.30
2018-01-30T12:21:56.436Z,84.90
2018-01-30T12:23:34.888Z,84.30
2018-01-30T12:25:11.528Z,84.30
2018-01-30T12:26:48.041Z,84.90
2018-01-30T12:28:24.544Z,84.00
2018-01-30T12:30:05.904Z,83.10
2018-01-30T12:31:42.546Z,84.90
2018-01-30T12:33:19.554Z,85.10
2018-01-30T12:34:56.839Z,85.50
2018-01-30T12:36:33.397Z,85.50
2018-01-30T12:38:10.366Z,86.10
2018-01-30T12:39:46.913Z,85.60
2018-01-30T12:41:23.403Z,85.00
2018-01-30T12:43:00.260Z,85.00
2018-01-30T12:44:36.744Z,85.60
2018-01-30T12:46:13.247Z,85.20
2018-01-30T12:47:49.746Z,85.50
2018-01-30T12:49:26.842Z,82.10
2018-01-30T12:51:04.271Z,81.60
2018-01-30T12:52:40.952Z,81.90
2018-01-30T12:54:17.560Z,82.00
2018-01-30T12:55:54.394Z,82.00
2018-01-30T12:57:31.139Z,81.70
2018-01-30T12:59:08.411Z,80.60
2018-01-30T13:00:46.359Z,81.80
2018-01-30T13:02:23.104Z,81.80
2018-01-30T13:03:59.638Z,81.60
2018-01-30T13:05:36.202Z,81.40
2018-01-30T13:07:13.077Z,81.30
2018-01-30T13:08:50.566Z,78.20
2018-01-30T13:10:27.047Z,78.10
2018-01-30T13:12:03.890Z,77.80
2018-01-30T13:13:40.290Z,77.10
2018-01-30T13:15:17.699Z,74.70
2018-01-30T13:16:54.919Z,75.40
2018-01-30T13:18:31.425Z,76.00
2018-01-30T13:20:07.917Z,78.00
2018-01-30T13:21:46.661Z,78.40
2018-01-30T13:23:25.028Z,76.80
2018-01-30T13:25:01.574Z,76.80
2018-01-30T13:26:38.173Z,76.10
2018-01-30T13:28:15.186Z,76.90
2018-01-30T13:29:52.433Z,78.20
2018-01-30T13:31:28.829Z,78.10
2018-01-30T13:33:05.963Z,76.70
2018-01-30T13:34:42.893Z,76.70
2018-01-30T13:36:19.628Z,77.70
2018-01-30T13:37:56.295Z,78.50
2018-01-30T13:39:33.457Z,78.90
2018-01-30T13:41:10.120Z,79.10
2018-01-30T13:42:46.724Z,79.30
2018-01-30T13:44:23.148Z,80.20
2018-01-30T13:45:59.785Z,81.30
2018-01-30T13:47:36.828Z,80.40
2018-01-30T13:49:13.445Z,79.50
2018-01-30T13:50:50.050Z,79.60
2018-01-30T13:52:27.420Z,77.80
2018-01-30T13:54:04.318Z,77.70
2018-01-30T13:55:41.516Z,75.60
2018-01-30T13:57:18.909Z,75.50
2018-01-30T13:58:55.474Z,76.80
2018-01-30T14:00:32.489Z,76.90
2018-01-30T14:02:09.035Z,77.50
2018-01-30T14:03:46.373Z,78.60
2018-01-30T14:05:23.821Z,79.70
2018-01-30T14:07:00.711Z,79.70
2018-01-30T14:08:40.035Z,79.00
2018-01-30T14:10:16.914Z,80.70
2018-01-30T14:11:53.810Z,80.20
2018-01-30T14:13:32.269Z,78.30
2018-01-30T14:15:09.588Z,77.20
2018-01-30T14:16:47.117Z,76.20
2018-01-30T14:18:25.368Z,76.60
2018-01-30T14:20:02.617Z,78.10
2018-01-30T14:21:39.230Z,79.10
2018-01-30T14:23:15.906Z,79.40
2018-01-30T14:24:53.569Z,81.70
2018-01-30T14:26:30.488Z,82.40
2018-01-30T14:28:07.116Z,79.90
2018-01-30T14:29:43.858Z,78.80
2018-01-30T14:31:22.531Z,76.90
2018-01-30T14:32:59.717Z,77.70
2018-01-30T14:34:38.777Z,75.90
2018-01-30T14:36:17.934Z,76.10
2018-01-30T14:37:54.594Z,75.30
2018-01-30T14:39:33.623Z,77.40
2018-01-30T14:41:10.123Z,77.40
2018-01-30T14:42:48.088Z,78.30
2018-01-30T14:44:24.658Z,77.10
2018-01-30T14:46:13.110Z,76.90
2018-01-30T14:47:50.733Z,77.10
2018-01-30T14:49:29.081Z,76.80
2018-01-30T14:51:06.649Z,76.50
2018-01-30T14:52:43.750Z,77.60
2018-01-30T14:54:22.519Z,77.60
2018-01-30T14:56:00.735Z,76.60
2018-01-30T14:57:37.511Z,77.80
2018-01-30T14:59:16.459Z,76.10
2018-01-30T15:00:54.885Z,76.90
2018-01-30T15:02:31.589Z,76.90
2018-01-30T15:04:08.299Z,75.80
2018-01-30T15:05:47.345Z,75.10
2018-01-30T15:07:24.539Z,75.80
2018-01-30T15:09:01.979Z,76.70
2018-01-30T15:10:38.655Z,75.50
2018-01-30T15:12:16.673Z,76.10
2018-01-30T15:13:53.340Z,76.10
2018-01-30T15:15:30.653Z,74.20
2018-01-30T15:17:07.884Z,74.20
2018-01-30T15:18:47.694Z,73.10
2018-01-30T15:20:25.608Z,73.20
2018-01-30T15:22:04.374Z,73.80
2018-01-30T15:23:53.098Z,72.90
2018-01-30T15:25:36.096Z,73.40
2018-01-30T15:27:15.881Z,76.30
2018-01-30T15:28:54.294Z,76.00
2018-01-30T15:30:31.631Z,75.90
2018-01-30T15:32:09.764Z,76.70
2018-01-30T15:33:48.292Z,76.00
2018-01-30T15:35:28.567Z,75.60
2018-01-30T15:37:08.543Z,74.20
2018-01-30T15:38:48.342Z,73.70
2018-01-30T15:40:25.216Z,73.80
2018-01-30T15:42:02.292Z,74.00
2018-01-30T15:43:39.589Z,74.90
2018-01-30T15:45:18.822Z,76.90
2018-01-30T15:46:56.010Z,76.80
2018-01-30T15:48:34.561Z,78.40
2018-01-30T15:50:11.460Z,81.00
2018-01-30T15:51:51.393Z,80.70
2018-01-30T15:53:28.723Z,79.40
2018-01-30T15:55:05.861Z,78.40
2018-01-30T15:56:44.005Z,79.10
2018-01-30T15:58:21.283Z,78.90
2018-01-30T15:59:57.976Z,77.50
2018-01-30T16:01:35.028Z,76.70
2018-01-30T16:03:13.796Z,76.60
2018-01-30T16:04:52.596Z,75.90
2018-01-30T16:06:30.132Z,75.30
2018-01-30T16:08:08.108Z,75.70
2018-01-30T16:09:45.231Z,75.10
2018-01-30T16:11:23.654Z,75.70
2018-01-30T16:13:00.911Z,76.90
2018-01-30T16:14:39.552Z,78.80
2018-01-30T16:16:16.791Z,78.70
2018-01-30T16:17:56.571Z,78.90
2018-01-30T16:19:34.069Z,77.10
2018-01-30T16:21:12.247Z,75.40
2018-01-30T16:22:59.105Z,76.50
2018-01-30T16:24:36.215Z,77.70
2018-01-30T16:26:12.767Z,78.00
2018-01-30T16:27:50.660Z,80.50
2018-01-30T16:29:27.534Z,81.00
2018-01-30T16:31:05.923Z,82.40
2018-01-30T16:32:43.455Z,82.30
2018-01-30T16:34:20.688Z,81.90
2018-01-30T16:35:57.339Z,81.90
2018-01-30T16:37:36.912Z,79.10
2018-01-30T16:39:13.624Z,77.70
2018-01-30T16:40:51.850Z,80.60
2018-01-30T16:42:29.228Z,80.50
2018-01-30T16:44:05.726Z,81.40
2018-01-30T16:45:44.802Z,82.20
2018-01-30T16:47:22.139Z,85.00
2018-01-30T16:48:58.612Z,85.00
2018-01-30T16:50:35.428Z,86.50
2018-01-30T16:52:12.426Z,87.60
2018-01-30T16:53:48.917Z,88.60
2018-01-30T16:55:25.638Z,89.30
2018-01-30T16:57:05.688Z,89.60
2018-01-30T16:58:42.185Z,89.60
2018-01-30T17:00:20.156Z,90.20
2018-01-30T17:01:56.833Z,90.50
2018-01-30T17:03:33.934Z,90.40
2018-01-30T17:05:10.554Z,90.40
2018-01-30T17:06:47.575Z,90.20
2018-01-30T17:08:24.128Z,89.90
2018-01-30T17:10:01.108Z,89.30
2018-01-30T17:11:37.721Z,89.80
2018-01-30T17:13:14.254Z,90.20
2018-01-30T17:14:51.710Z,90.10
2018-01-30T17:16:28.556Z,90.10
2018-01-30T17:18:05.170Z,89.90
2018-01-30T17:19:42.282Z,90.10
2018-01-30T17:21:18.668Z,89.30
2018-01-30T17:22:55.492Z,89.00
2018-01-30T17:24:32.034Z,88.60
2018-01-30T17:26:08.598Z,87.80
2018-01-30T17:27:45.014Z,86.80
2018-01-30T17:29:21.654Z,88.80
2018-01-30T17:30:58.022Z,89.80
2018-01-30T17:32:35.297Z,89.30
2018-01-30T17:34:11.969Z,89.20
2018-01-30T17:35:50.433Z,89.40
2018-01-30T17:37:26.881Z,89.40
2018-01-30T17:39:03.586Z,90.30
2018-01-30T17:40:40.233Z,90.60
2018-01-30T17:42:18.609Z,91.20
2018-01-30T17:43:55.164Z,91.50
2018-01-30T17:45:31.806Z,91.60
2018-01-30T17:47:09.299Z,91.30
2018-01-30T17:48:46.374Z,91.20
2018-01-30T17:50:23.144Z,90.30
2018-01-30T17:51:59.644Z,88.60
2018-01-30T17:53:36.104Z,87.40
2018-01-30T17:55:13.293Z,87.00
2018-01-30T17:56:50.557Z,86.20
2018-01-30T17:58:27.310Z,86.20
2018-01-30T18:00:06.505Z,84.80
2018-01-30T18:01:43.295Z,84.80
2018-01-30T18:03:20.712Z,86.60
2018-01-30T18:04:58.465Z,87.30
2018-01-30T18:06:35.311Z,87.30
2018-01-30T18:08:12.094Z,88.10
2018-01-30T18:09:48.667Z,89.40
2018-01-30T18:11:25.679Z,90.00
2018-01-30T18:13:03.007Z,90.90
2018-01-30T18:14:39.954Z,90.90
2018-01-30T18:16:16.664Z,90.80
2018-01-30T18:17:53.318Z,90.50
2018-01-30T18:19:29.895Z,90.40
2018-01-30T18:21:07.028Z,90.40
2018-01-30T18:22:43.733Z,89.70
2018-01-30T18:24:22.982Z,89.00
2018-01-30T18:25:59.599Z,90.50
2018-01-30T18:27:36.488Z,90.80
2018-01-30T18:29:13.026Z,90.60
2018-01-30T18:30:50.303Z,90.50
2018-01-30T18:32:27.277Z,90.00
2018-01-30T18:34:04.095Z,90.40
2018-01-30T18:35:41.621Z,90.80
2018-01-30T18:37:18.347Z,89.80
2018-01-30T18:38:55.088Z,87.10
2018-01-30T18:40:33.474Z,85.40
2018-01-30T18:42:10.928Z,84.20
2018-01-30T18:43:47.609Z,84.10
2018-01-30T18:45:24.390Z,84.10
2018-01-30T18:47:01.536Z,84.60
2018-01-30T18:48:39.106Z,86.10
2018-01-30T18:50:15.592Z,86.00
2018-01-30T18:51:54.513Z,88.20
2018-01-30T18:53:36.006Z,89.60
2018-01-30T18:55:18.457Z,90.40
2018-01-30T18:56:56.150Z,90.40
2018-01-30T18:58:32.779Z,90.20
2018-01-30T19:00:10.259Z,90.80
2018-01-30T19:01:46.830Z,91.10
2018-01-30T19:03:24.003Z,91.70
2018-01-30T19:05:01.917Z,92.30
2018-01-30T19:06:40.376Z,92.60
2018-01-30T19:08:17.710Z,92.90
2018-01-30T19:09:55.488Z,93.10
2018-01-30T19:11:32.378Z,93.50
2018-01-30T19:13:10.050Z,93.10
2018-01-30T19:14:49.943Z,93.00
2018-01-30T19:16:27.748Z,92.90
2018-01-30T19:18:07.169Z,93.00
2018-01-30T19:19:44.630Z,93.20
2018-01-30T19:21:25.442Z,93.50
2018-01-30T19:23:02.360Z,93.70
2018-01-30T19:24:40.579Z,93.80
2018-01-30T19:26:18.219Z,93.90
2018-01-30T19:27:55.441Z,94.00
2018-01-30T19:29:33.369Z,93.70
2018-01-30T19:31:10.732Z,93.60
2018-01-30T19:32:47.891Z,93.30
2018-01-30T19:34:29.986Z,92.90
2018-01-30T19:36:08.389Z,92.80
2018-01-30T19:37:47.337Z,92.80
2018-01-30T19:39:24.411Z,92.80
2018-01-30T19:41:01.088Z,92.60
2018-01-30T19:42:37.992Z,92.60
2018-01-30T19:44:14.682Z,92.30
2018-01-30T19:45:53.380Z,91.80
2018-01-30T19:47:30.742Z,91.10
2018-01-30T19:49:07.208Z,91.00
2018-01-30T19:50:43.888Z,91.20
2018-01-30T19:52:20.424Z,90.30
2018-01-30T19:54:03.924Z,90.20
2018-01-30T19:55:44.492Z,89.00
2018-01-30T19:57:21.386Z,89.00
2018-01-30T19:59:00.642Z,89.40
2018-01-30T20:00:37.338Z,90.00
2018-01-30T20:02:13.872Z,90.40
2018-01-30T20:03:50.944Z,90.80
2018-01-30T20:05:28.288Z,91.40
2018-01-30T20:07:05.937Z,92.30
2018-01-30T20:08:42.692Z,92.30
2018-01-30T20:10:19.504Z,92.90
2018-01-30T20:11:56.092Z,93.30
2018-01-30T20:13:32.676Z,93.50
2018-01-30T20:15:09.207Z,93.50
2018-01-30T20:16:46.210Z,93.40
2018-01-30T20:18:23.724Z,93.30
2018-01-30T20:20:00.519Z,93.20
2018-01-30T20:21:37.226Z,93.30
2018-01-30T20:23:14.982Z,93.30
2018-01-30T20:24:52.396Z,93.40
2018-01-30T20:26:34.115Z,93.40
2018-01-30T20:28:11.826Z,93.40
2018-01-30T20:29:48.473Z,93.30
2018-01-30T20:31:26.211Z,92.80
2018-01-30T20:33:02.748Z,92.40
2018-01-30T20:34:39.448Z,92.30
2018-01-30T20:36:16.324Z,91.60
2018-01-30T20:37:54.256Z,91.20
2018-01-30T20:39:31.251Z,91.10
2018-01-30T20:41:08.746Z,91.30
2018-01-30T20:42:46.390Z,91.30
2018-01-30T20:44:23.100Z,91.30
2018-01-30T20:45:59.862Z,90.70
2018-01-30T20:47:38.105Z,91.10
2018-01-30T20:49:16.521Z,90.40
2018-01-30T20:50:54.630Z,90.90
2018-01-30T20:52:32.093Z,91.30
2018-01-30T20:54:08.623Z,91.30
2018-01-30T20:55:45.590Z,91.30
2018-01-30T20:57:22.155Z,90.20
2018-01-30T20:58:59.556Z,88.50
2018-01-30T21:00:37.787Z,85.50
2018-01-30T21:02:14.970Z,85.40
2018-01-30T21:03:51.985Z,84.80
2018-01-30T21:05:28.889Z,84.10
2018-01-30T21:07:05.416Z,83.60
2018-01-30T21:08:42.598Z,83.70
2018-01-30T21:10:20.224Z,83.10
2018-01-30T21:11:56.677Z,83.00
2018-01-30T21:13:33.714Z,83.20
2018-01-30T21:15:12.878Z,83.50
2018-01-30T21:16:54.536Z,83.50
2018-01-30T21:18:31.333Z,83.60
2018-01-30T21:20:13.641Z,84.00
2018-01-30T21:21:51.682Z,83.90
2018-01-30T21:25:19.003Z,84.20
2018-01-30T21:26:56.897Z,84.20
2018-01-30T21:28:33.676Z,86.80
2018-01-30T21:30:10.097Z,87.10
2018-01-30T21:31:46.790Z,87.40
2018-01-30T21:33:23.806Z,87.20
2018-01-30T21:35:00.296Z,86.90
2018-01-30T21:36:37.185Z,86.60
2018-01-30T21:38:14.550Z,84.70
2018-01-30T21:39:51.825Z,84.90
2018-01-30T21:41:28.325Z,84.90
2018-01-30T21:43:05.562Z,84.70
2018-01-30T21:44:43.184Z,84.70
2018-01-30T21:46:20.908Z,84.50
2018-01-30T21:47:57.400Z,84.50
2018-01-30T21:49:34.250Z,84.90
2018-01-30T21:51:10.795Z,83.80
2018-01-30T21:52:48.683Z,84.10
2018-01-30T21:54:25.519Z,84.10
2018-01-30T21:56:03.630Z,83.20
2018-01-30T21:57:40.500Z,83.70
2018-01-30T21:59:16.938Z,83.30
2018-01-30T22:00:53.773Z,83.30
2018-01-30T22:02:30.191Z,84.10
2018-01-30T22:04:07.261Z,84.20
2018-01-30T22:05:44.848Z,83.60
2018-01-30T22:07:21.562Z,86.30
2018-01-30T22:08:58.586Z,87.90
2018-01-30T22:10:36.169Z,88.00
2018-01-30T22:12:13.444Z,86.20
2018-01-30T22:13:49.916Z,86.20
2018-01-30T22:15:28.628Z,84.60
2018-01-30T22:17:06.876Z,83.90
2018-01-30T22:18:43.433Z,84.50
2018-01-30T22:20:19.919Z,84.50
2018-01-30T22:21:56.270Z,83.40
2018-01-30T22:23:33.075Z,83.30
2018-01-30T22:25:09.680Z,83.20
2018-01-30T22:26:46.998Z,83.10
2018-01-30T22:28:24.101Z,83.10
2018-01-30T22:30:03.666Z,82.90
2018-01-30T22:31:40.376Z,82.90
2018-01-30T22:33:16.880Z,82.90
2018-01-30T22:34:53.277Z,82.90
2018-01-30T22:36:29.876Z,83.10
2018-01-30T22:38:06.330Z,83.20
2018-01-30T22:39:42.818Z,84.00
2018-01-30T22:41:19.313Z,84.40
2018-01-30T22:42:57.295Z,85.00
2018-01-30T22:44:33.613Z,85.00
2018-01-30T22:46:10.473Z,85.60
